Terminal Aerodrome Forecast
Issued by NWS

Home | Current Version | Previous Version | Text Only | Print | Product List | Glossary On
Versions: 1 2 3 4 5 6 7 8 9 10 11 12 13 14 15 16 17 18 19 20 21 22 23 24 25 26 27 28 29 30 31 32 33 34 35 36 37 38 39 40
000
FTUS45 KPSR 280119 AAA
TAFIWA
TAF AMD
KIWA 280119Z 2801/2824 30008KT P6SM VCTS SCT080CB BKN120 BKN200
     FM280400 36009KT P6SM SCT080 BKN120 BKN200
     FM280700 12005KT P6SM SCT080 BKN200
     FM282100 25008KT P6SM SCT120 SCT250
      AMD LTD TO CLD VIS AND WIND 2803/2813=

USA.gov is the U.S. government's official web portal to all federal, state and local government web resources and services.